Time;durP1;ratioP1;P1;durP2;ratioP2;P2;SDS_P1;SDS_P2;PMS_P1;PMS_P2;Temp;Humidity;BMP_temperature;BMP_pressure;BME280_temperature;BME280_humidity;BME280_pressure;Samples;Min_cycle;Max_cycle;Signal;HPM_P1;HPM_P2
2021/01/02 00:01:32;;;;;;;;;;;;;;;;;;5098738;28;20425;-89
2021/01/02 00:03:59;;;;;;;;;;;;;;;;;;5092053;28;20433;-88
2021/01/02 00:06:25;;;;;;;;;;;;;;;;;;5094254;28;20384;-89
2021/01/02 00:08:52;;;;;;;;;;;;;;;;;;5086078;28;20850;-89
2021/01/02 00:11:18;;;;;;;;;;;;;;;;;;5079351;28;20394;-90
2021/01/02 00:13:45;;;;;;;;;;;;;;;;;;5079566;28;20410;-89
2021/01/02 00:16:11;;;;;;;;;;;;;;;;;;5080275;28;20984;-89
2021/01/02 00:18:37;;;;;;;;;;;;;;;;;;5083141;28;20830;-89
2021/01/02 00:21:04;;;;;;;;;;;;;;;;;;5094891;28;20403;-89
2021/01/02 00:23:30;;;;;;;;;;;;;;;;;;5097318;28;20411;-89
2021/01/02 00:25:57;;;;;;;;;;;;;;;;;;5099392;28;20362;-88
2021/01/02 00:28:23;;;;;;;;;;;;;;;;;;5099279;28;20460;-88
2021/01/02 00:30:50;;;;;;;;;;;;;;;;;;5098775;28;20378;-87
2021/01/02 00:33:16;;;;;;;;;;;;;;;;;;5089500;28;20409;-90
2021/01/02 00:35:43;;;;;;;;;;;;;;;;;;5079396;28;20390;-87
2021/01/02 00:38:11;;;;;;;;;;;;;;;;;;5078102;28;20396;-88
2021/01/02 00:40:37;;;;;;;;;;;;;;;;;;5077654;28;20869;-89
2021/01/02 00:43:04;;;;;;;;;;;;;;;;;;5077146;28;20559;-89
2021/01/02 00:45:31;;;;;;;;;;;;;;;;;;5077681;28;20381;-88
2021/01/02 00:47:58;;;;;;;;;;;;;;;;;;5077563;28;20834;-88
2021/01/02 00:50:24;;;;;;;;;;;;;;;;;;5076595;28;20439;-87
2021/01/02 00:52:50;;;;;;;;;;;;;;;;;;5080646;28;20447;-88
2021/01/02 00:55:16;;;;;;;;;;;;;;;;;;5082916;28;20813;-88
2021/01/02 00:57:43;;;;;;;;;;;;;;;;;;5084598;28;20385;-89
2021/01/02 01:00:09;;;;;;;;;;;;;;;;;;5086936;28;20478;-89
2021/01/02 01:02:36;;;;;;;;;;;;;;;;;;5084002;28;20405;-87
2021/01/02 01:05:02;;;;;;;;;;;;;;;;;;5086273;28;20860;-88
2021/01/02 01:07:29;;;;;;;;;;;;;;;;;;5084200;28;20390;-87
2021/01/02 01:09:55;;;;;;;;;;;;;;;;;;5088936;28;20390;-87
2021/01/02 01:12:21;;;;;;;;;;;;;;;;;;5083092;28;20444;-88
2021/01/02 01:14:48;;;;;;;;;;;;;;;;;;5084184;28;20382;-88
2021/01/02 01:17:14;;;;;;;;;;;;;;;;;;5087708;28;20386;-87
2021/01/02 01:19:41;;;;;;;;;;;;;;;;;;5092531;28;20496;-87
2021/01/02 01:22:07;;;;;;;;;;;;;;;;;;5088366;28;20409;-88
2021/01/02 01:24:33;;;;;;;;;;;;;;;;;;5086833;28;20378;-88
2021/01/02 01:27:00;;;;;;;;;;;;;;;;;;5086427;28;20381;-88
2021/01/02 01:29:26;;;;;;;;;;;;;;;;;;5085379;28;20386;-87
2021/01/02 01:31:53;;;;;;;;;;;;;;;;;;5087863;28;20420;-88
2021/01/02 01:34:20;;;;;;;;;;;;;;;;;;5087031;28;20397;-87
2021/01/02 01:36:46;;;;;;;;;;;;;;;;;;5099643;28;20365;-87
2021/01/02 01:39:12;;;;;;;;;;;;;;;;;;5085260;28;20409;-87
2021/01/02 01:41:39;;;;;;;;;;;;;;;;;;5085216;28;20427;-87
2021/01/02 01:44:05;;;;;;;;;;;;;;;;;;5085366;28;20392;-87
2021/01/02 01:46:32;;;;;;;;;;;;;;;;;;5092623;28;20387;-88
2021/01/02 01:48:58;;;;;;;;;;;;;;;;;;5085772;28;20392;-87
2021/01/02 01:51:25;;;;;;;;;;;;;;;;;;5089430;28;20374;-88
2021/01/02 01:53:51;;;;;;;;;;;;;;;;;;5088833;28;20417;-89
2021/01/02 01:56:18;;;;;;;;;;;;;;;;;;5091694;28;20382;-87
2021/01/02 01:58:44;;;;;;;;;;;;;;;;;;5098909;28;20414;-89
2021/01/02 02:01:10;;;;;;;;;;;;;;;;;;5105401;28;20358;-87
2021/01/02 02:03:37;;;;;;;;;;;;;;;;;;5101362;28;20381;-86
2021/01/02 02:06:03;;;;;;;;;;;;;;;;;;5099664;28;20379;-88
2021/01/02 02:08:30;;;;;;;;;;;;;;;;;;5080878;28;20382;-87
2021/01/02 02:10:56;;;;;;;;;;;;;;;;;;5081300;28;20385;-87
2021/01/02 02:13:22;;;;;;;;;;;;;;;;;;5079649;28;20417;-88
2021/01/02 02:15:49;;;;;;;;;;;;;;;;;;5079201;28;20386;-89
2021/01/02 02:18:15;;;;;;;;;;;;;;;;;;5075846;28;20384;-88
2021/01/02 02:20:42;;;;;;;;;;;;;;;;;;5059936;28;20850;-87
2021/01/02 02:23:08;;;;;;;;;;;;;;;;;;5095653;28;20402;-89
2021/01/02 02:25:34;;;;;;;;;;;;;;;;;;5084296;28;20377;-89
2021/01/02 02:28:01;;;;;;;;;;;;;;;;;;5080231;28;20405;-88
2021/01/02 02:30:27;;;;;;;;;;;;;;;;;;5080201;28;20382;-89
2021/01/02 02:32:54;;;;;;;;;;;;;;;;;;5078103;28;20413;-91
2021/01/02 02:35:20;;;;;;;;;;;;;;;;;;5079892;28;20379;-89
2021/01/02 02:37:46;;;;;;;;;;;;;;;;;;5081292;28;20375;-90
2021/01/02 02:40:13;;;;;;;;;;;;;;;;;;5079961;28;20405;-90
2021/01/02 02:42:39;;;;;;;;;;;;;;;;;;5078965;28;20425;-89
2021/01/02 02:45:05;;;;;;;;;;;;;;;;;;5079000;28;20387;-89
2021/01/02 02:47:32;;;;;;;;;;;;;;;;;;5079192;28;20386;-89
2021/01/02 02:49:58;;;;;;;;;;;;;;;;;;5091917;28;20388;-89
2021/01/02 02:52:25;;;;;;;;;;;;;;;;;;5084626;28;20441;-90
2021/01/02 02:54:51;;;;;;;;;;;;;;;;;;5078751;28;20739;-89
2021/01/02 02:57:18;;;;;;;;;;;;;;;;;;5078700;28;20466;-89
2021/01/02 02:59:44;;;;;;;;;;;;;;;;;;5077634;28;20378;-89
2021/01/02 03:02:10;;;;;;;;;;;;;;;;;;5077708;28;20406;-90
2021/01/02 03:04:37;;;;;;;;;;;;;;;;;;5083852;28;20397;-89
2021/01/02 03:07:04;;;;;;;;;;;;;;;;;;5077549;28;20386;-90
2021/01/02 03:09:30;;;;;;;;;;;;;;;;;;5077423;28;20540;-89
2021/01/02 03:11:56;;;;;;;;;;;;;;;;;;5077006;28;20417;-89
2021/01/02 03:14:23;;;;;;;;;;;;;;;;;;5077041;28;20398;-88
2021/01/02 03:16:49;;;;;;;;;;;;;;;;;;5076507;28;20386;-89
2021/01/02 03:19:16;;;;;;;;;;;;;;;;;;5078103;28;20377;-89
2021/01/02 03:21:42;;;;;;;;;;;;;;;;;;5078026;28;20453;-89
2021/01/02 03:24:08;;;;;;;;;;;;;;;;;;5081126;28;20378;-89
2021/01/02 03:26:35;;;;;;;;;;;;;;;;;;5081074;28;20377;-89
2021/01/02 03:29:01;;;;;;;;;;;;;;;;;;5075849;28;20793;-89
2021/01/02 03:31:27;;;;;;;;;;;;;;;;;;5077116;28;20853;-88
2021/01/02 03:33:54;;;;;;;;;;;;;;;;;;5085254;28;20404;-89
2021/01/02 03:36:20;;;;;;;;;;;;;;;;;;5077679;28;20388;-90
2021/01/02 03:38:47;;;;;;;;;;;;;;;;;;5083252;28;20758;-89
2021/01/02 03:41:13;;;;;;;;;;;;;;;;;;5079554;28;20378;-89
2021/01/02 03:43:39;;;;;;;;;;;;;;;;;;5075413;28;20797;-88
2021/01/02 03:46:06;;;;;;;;;;;;;;;;;;5078907;28;20390;-89
2021/01/02 03:48:32;;;;;;;;;;;;;;;;;;5087342;28;20400;-89
2021/01/02 03:50:58;;;;;;;;;;;;;;;;;;5090394;28;20379;-88
2021/01/02 03:53:25;;;;;;;;;;;;;;;;;;5077288;28;20794;-89
2021/01/02 03:55:51;;;;;;;;;;;;;;;;;;5077122;28;20398;-88
2021/01/02 03:58:18;;;;;;;;;;;;;;;;;;5077854;28;20432;-89
2021/01/02 04:00:44;;;;;;;;;;;;;;;;;;5077744;28;20834;-89
2021/01/02 04:03:10;;;;;;;;;;;;;;;;;;5075459;28;20405;-89
2021/01/02 04:05:37;;;;;;;;;;;;;;;;;;5076954;28;20774;-89
2021/01/02 04:08:03;;;;;;;;;;;;;;;;;;5064236;28;20378;-89
2021/01/02 04:10:30;;;;;;;;;;;;;;;;;;5081046;28;20404;-88
2021/01/02 04:12:56;;;;;;;;;;;;;;;;;;5076250;28;20406;-88
2021/01/02 04:15:22;;;;;;;;;;;;;;;;;;5079410;28;20431;-88
2021/01/02 04:17:49;;;;;;;;;;;;;;;;;;5077281;28;20382;-89
2021/01/02 04:20:15;;;;;;;;;;;;;;;;;;5077095;28;20389;-88
2021/01/02 04:22:41;;;;;;;;;;;;;;;;;;5077507;28;20397;-89
2021/01/02 04:25:08;;;;;;;;;;;;;;;;;;5079654;28;20389;-89
2021/01/02 04:27:34;;;;;;;;;;;;;;;;;;5077080;28;20435;-89
2021/01/02 04:30:01;;;;;;;;;;;;;;;;;;5077379;28;20436;-89
2021/01/02 04:32:27;;;;;;;;;;;;;;;;;;5078707;28;20783;-89
2021/01/02 04:34:53;;;;;;;;;;;;;;;;;;5077350;28;20378;-89
2021/01/02 04:37:20;;;;;;;;;;;;;;;;;;5089902;28;20382;-89
2021/01/02 04:39:46;;;;;;;;;;;;;;;;;;5086808;28;20379;-90
2021/01/02 04:42:12;;;;;;;;;;;;;;;;;;5080347;28;20402;-89
2021/01/02 04:44:39;;;;;;;;;;;;;;;;;;5077766;28;20416;-89
2021/01/02 04:47:05;;;;;;;;;;;;;;;;;;5085904;28;20395;-88
2021/01/02 04:49:32;;;;;;;;;;;;;;;;;;5094117;28;20377;-89
2021/01/02 04:51:58;;;;;;;;;;;;;;;;;;5083067;28;20405;-89
2021/01/02 04:54:24;;;;;;;;;;;;;;;;;;5078447;28;20441;-90
2021/01/02 04:56:51;;;;;;;;;;;;;;;;;;5079361;28;20443;-89
2021/01/02 04:59:17;;;;;;;;;;;;;;;;;;5092465;28;20403;-89
2021/01/02 05:01:43;;;;;;;;;;;;;;;;;;5084704;28;20432;-89
2021/01/02 05:04:10;;;;;;;;;;;;;;;;;;5080389;28;20830;-89
2021/01/02 05:06:36;;;;;;;;;;;;;;;;;;5092025;28;20386;-89
2021/01/02 05:09:03;;;;;;;;;;;;;;;;;;5080090;28;20377;-89
2021/01/02 05:11:29;;;;;;;;;;;;;;;;;;5079770;28;20385;-89
2021/01/02 05:13:55;;;;;;;;;;;;;;;;;;5079548;28;20732;-89
2021/01/02 05:16:24;;;;;;;;;;;;;;;;;;5080356;28;20386;-89
2021/01/02 05:18:50;;;;;;;;;;;;;;;;;;5079525;28;20432;-88
2021/01/02 05:21:17;;;;;;;;;;;;;;;;;;5091652;28;20386;-88
2021/01/02 05:23:43;;;;;;;;;;;;;;;;;;5088960;28;20399;-89
2021/01/02 05:26:09;;;;;;;;;;;;;;;;;;5082607;28;20849;-89
2021/01/02 05:28:36;;;;;;;;;;;;;;;;;;5071633;28;20434;-89
2021/01/02 05:31:02;;;;;;;;;;;;;;;;;;5078294;28;20370;-89
2021/01/02 05:33:28;;;;;;;;;;;;;;;;;;5080292;28;20406;-89
2021/01/02 05:35:55;;;;;;;;;;;;;;;;;;5079421;28;20389;-89
2021/01/02 05:38:21;;;;;;;;;;;;;;;;;;5080149;28;20391;-89
2021/01/02 05:40:48;;;;;;;;;;;;;;;;;;5082390;28;20857;-88
2021/01/02 05:43:14;;;;;;;;;;;;;;;;;;5094323;28;20399;-90
2021/01/02 05:45:40;;;;;;;;;;;;;;;;;;5101785;28;20497;-88
2021/01/02 05:48:07;;;;;;;;;;;;;;;;;;5101421;28;20819;-89
2021/01/02 05:50:33;;;;;;;;;;;;;;;;;;5085954;28;20386;-89
2021/01/02 05:53:00;;;;;;;;;;;;;;;;;;5081555;28;20766;-88
2021/01/02 05:55:26;;;;;;;;;;;;;;;;;;5081150;28;20382;-88
2021/01/02 05:57:52;;;;;;;;;;;;;;;;;;5096515;28;20387;-89
2021/01/02 06:00:19;;;;;;;;;;;;;;;;;;5078964;28;20858;-89
2021/01/02 06:02:45;;;;;;;;;;;;;;;;;;5079987;28;20398;-87
2021/01/02 06:05:11;;;;;;;;;;;;;;;;;;5078523;28;20401;-89
2021/01/02 06:07:38;;;;;;;;;;;;;;;;;;5078000;28;20451;-89
2021/01/02 06:10:04;;;;;;;;;;;;;;;;;;5079264;28;20383;-89
2021/01/02 06:12:30;;;;;;;;;;;;;;;;;;5078086;28;20410;-89
2021/01/02 06:14:57;;;;;;;;;;;;;;;;;;5079059;28;20378;-89
2021/01/02 06:17:23;;;;;;;;;;;;;;;;;;5075244;28;20394;-87
2021/01/02 06:19:50;;;;;;;;;;;;;;;;;;5087964;28;20460;-89
2021/01/02 06:22:16;;;;;;;;;;;;;;;;;;5081889;28;20402;-90
2021/01/02 06:24:42;;;;;;;;;;;;;;;;;;5079474;28;20773;-89
2021/01/02 06:27:09;;;;;;;;;;;;;;;;;;5095732;28;20383;-90
2021/01/02 06:29:35;;;;;;;;;;;;;;;;;;5083119;28;20378;-89
2021/01/02 06:32:02;;;;;;;;;;;;;;;;;;5079213;28;20463;-88
2021/01/02 06:34:28;;;;;;;;;;;;;;;;;;5078812;28;20406;-89
2021/01/02 06:36:55;;;;;;;;;;;;;;;;;;5077970;28;20378;-89
2021/01/02 06:39:22;;;;;;;;;;;;;;;;;;5078342;28;20413;-89
2021/01/02 06:41:48;;;;;;;;;;;;;;;;;;5078354;28;20402;-89
2021/01/02 06:44:15;;;;;;;;;;;;;;;;;;5076932;28;20385;-89
2021/01/02 06:46:41;;;;;;;;;;;;;;;;;;5077553;28;20417;-89
2021/01/02 06:49:08;;;;;;;;;;;;;;;;;;5077432;28;20848;-89
2021/01/02 06:51:34;;;;;;;;;;;;;;;;;;5078183;28;20451;-89
2021/01/02 06:54:01;;;;;;;;;;;;;;;;;;5074600;28;20409;-88
2021/01/02 06:56:27;;;;;;;;;;;;;;;;;;5093099;28;20444;-88
2021/01/02 06:58:53;;;;;;;;;;;;;;;;;;5081643;28;20857;-89
2021/01/02 07:01:20;;;;;;;;;;;;;;;;;;5079865;28;20391;-89
2021/01/02 07:03:46;;;;;;;;;;;;;;;;;;5083384;28;20398;-90
2021/01/02 07:06:13;;;;;;;;;;;;;;;;;;5077473;28;20388;-90
2021/01/02 07:08:39;;;;;;;;;;;;;;;;;;5079036;28;20386;-89
2021/01/02 07:11:05;;;;;;;;;;;;;;;;;;5080462;28;20398;-90
2021/01/02 07:13:32;;;;;;;;;;;;;;;;;;5078912;28;20402;-89
2021/01/02 07:15:58;;;;;;;;;;;;;;;;;;5073497;28;20738;-89
2021/01/02 07:18:24;;;;;;;;;;;;;;;;;;5076259;28;20374;-89
2021/01/02 07:20:51;;;;;;;;;;;;;;;;;;5078058;28;20394;-90
2021/01/02 07:23:17;;;;;;;;;;;;;;;;;;5077875;28;20402;-89
2021/01/02 07:25:44;;;;;;;;;;;;;;;;;;5085161;28;20370;-90
2021/01/02 07:28:10;;;;;;;;;;;;;;;;;;5079020;28;20374;-90
2021/01/02 07:30:36;;;;;;;;;;;;;;;;;;5080528;28;20378;-90
2021/01/02 07:33:04;;;;;;;;;;;;;;;;;;5102696;28;20451;-89
2021/01/02 07:35:30;;;;;;;;;;;;;;;;;;5102248;28;20382;-89
2021/01/02 07:37:58;;;;;;;;;;;;;;;;;;5099342;28;20367;-88
2021/01/02 07:40:24;;;;;;;;;;;;;;;;;;5099486;28;20369;-87
2021/01/02 07:42:50;;;;;;;;;;;;;;;;;;5099543;28;20413;-87
2021/01/02 07:45:17;;;;;;;;;;;;;;;;;;5098181;28;20374;-90
2021/01/02 07:47:43;;;;;;;;;;;;;;;;;;5086529;28;20394;-90
2021/01/02 07:50:10;;;;;;;;;;;;;;;;;;5077286;28;20390;-90
2021/01/02 07:52:36;;;;;;;;;;;;;;;;;;5076839;28;20425;-90
2021/01/02 07:55:02;;;;;;;;;;;;;;;;;;5076552;28;20393;-89
2021/01/02 07:57:29;;;;;;;;;;;;;;;;;;5083691;28;20435;-90
2021/01/02 07:59:55;;;;;;;;;;;;;;;;;;5077155;28;20409;-89
2021/01/02 08:02:22;;;;;;;;;;;;;;;;;;5076203;28;20402;-88
2021/01/02 08:04:48;;;;;;;;;;;;;;;;;;5075402;28;20375;-89
2021/01/02 08:07:14;;;;;;;;;;;;;;;;;;5078138;28;20437;-88
2021/01/02 08:09:41;;;;;;;;;;;;;;;;;;5076623;28;20381;-89
2021/01/02 08:12:07;;;;;;;;;;;;;;;;;;5076807;28;20406;-89
2021/01/02 08:14:33;;;;;;;;;;;;;;;;;;5093063;22;20474;-84
2021/01/02 08:17:01;;;;;;;;;;;;;;;;;;5050913;28;20494;-84
2021/01/02 08:19:27;;;;;;;;;;;;;;;;;;5053018;28;20393;-84
2021/01/02 08:21:53;;;;;;;;;;;;;;;;;;5054489;28;20733;-84
2021/01/02 08:24:20;;;;;;;;;;;;;;;;;;5049927;28;20461;-84
2021/01/02 08:26:46;;;;;;;;;;;;;;;;;;5049965;28;20391;-84
2021/01/02 08:29:13;;;;;;;;;;;;;;;;;;5051240;28;20402;-84
2021/01/02 08:31:39;;;;;;;;;;;;;;;;;;5064846;28;20391;-83
2021/01/02 08:34:05;;;;;;;;;;;;;;;;;;5061670;28;20414;-83
2021/01/02 08:36:32;;;;;;;;;;;;;;;;;;5060198;28;20394;-82
2021/01/02 08:38:58;;;;;;;;;;;;;;;;;;5056480;28;20383;-83
2021/01/02 08:41:25;;;;;;;;;;;;;;;;;;5059798;28;20393;-81
2021/01/02 08:43:51;;;;;;;;;;;;;;;;;;5057187;28;20414;-81
2021/01/02 08:46:17;;;;;;;;;;;;;;;;;;5060282;28;20388;-81
2021/01/02 08:48:44;;;;;;;;;;;;;;;;;;5055883;28;20383;-82
2021/01/02 08:51:10;;;;;;;;;;;;;;;;;;5050961;28;20394;-83
2021/01/02 08:53:42;;;;;;;;;;;;;;;;;;5054357;28;20404;-87
2021/01/02 09:01:45;;;;;;;;;;;;;;;;;;4993887;28;20426;-87
2021/01/02 09:04:12;;;;;;;;;;;;;;;;;;5061467;28;20404;-87
2021/01/02 09:20:44;;;;;;;;;;;;;;;;;;4982116;28;20395;-89
2021/01/02 09:23:34;;;;;;;;;;;;;;;;;;4997378;28;20559;-89
2021/01/02 09:31:37;;;;;;;;;;;;;;;;;;4979536;28;20472;-88
2021/01/02 09:34:03;;;;;;;;;;;;;;;;;;5027888;28;20400;-88
2021/01/02 09:36:30;;;;;;;;;;;;;;;;;;5061252;28;20391;-88
2021/01/02 09:38:56;;;;;;;;;;;;;;;;;;5057921;28;20744;-87
2021/01/02 09:41:23;;;;;;;;;;;;;;;;;;5037610;28;20398;-87
2021/01/02 09:43:49;;;;;;;;;;;;;;;;;;5048603;28;20405;-88
2021/01/02 09:46:18;;;;;;;;;;;;;;;;;;5038803;28;20836;-87
2021/01/02 09:48:45;;;;;;;;;;;;;;;;;;5045310;28;20388;-87
2021/01/02 09:51:11;;;;;;;;;;;;;;;;;;5038679;28;20387;-87
2021/01/02 09:53:38;;;;;;;;;;;;;;;;;;5037421;28;20422;-88
2021/01/02 09:56:04;;;;;;;;;;;;;;;;;;5057147;28;20381;-88
2021/01/02 09:58:31;;;;;;;;;;;;;;;;;;5047880;28;20407;-88
2021/01/02 10:00:57;;;;;;;;;;;;;;;;;;5037819;28;20740;-88
2021/01/02 10:03:23;;;;;;;;;;;;;;;;;;5041631;28;20730;-87
2021/01/02 10:05:50;;;;;;;;;;;;;;;;;;5037346;28;20854;-88
2021/01/02 10:08:16;;;;;;;;;;;;;;;;;;5051072;28;20380;-89
2021/01/02 10:10:43;;;;;;;;;;;;;;;;;;5056455;28;20442;-89
2021/01/02 10:13:09;;;;;;;;;;;;;;;;;;5056574;28;20426;-89
2021/01/02 10:15:36;;;;;;;;;;;;;;;;;;5056185;28;20395;-87
2021/01/02 10:18:02;;;;;;;;;;;;;;;;;;5056481;28;20396;-87
2021/01/02 10:20:29;;;;;;;;;;;;;;;;;;5056481;28;20392;-87
2021/01/02 10:22:55;;;;;;;;;;;;;;;;;;5056113;28;20419;-89
2021/01/02 10:25:22;;;;;;;;;;;;;;;;;;5060689;28;20387;-88
2021/01/02 10:27:48;;;;;;;;;;;;;;;;;;5080618;28;20414;-88
2021/01/02 10:30:14;;;;;;;;;;;;;;;;;;5080774;28;20391;-88
2021/01/02 10:32:41;;;;;;;;;;;;;;;;;;5058390;28;20381;-89
2021/01/02 10:35:07;;;;;;;;;;;;;;;;;;5047842;28;20418;-90
2021/01/02 10:37:34;;;;;;;;;;;;;;;;;;5035736;28;20391;-89
2021/01/02 10:40:00;;;;;;;;;;;;;;;;;;5044166;28;20389;-89
2021/01/02 10:42:26;;;;;;;;;;;;;;;;;;5055943;28;20488;-90
2021/01/02 10:44:53;;;;;;;;;;;;;;;;;;5055728;28;20409;-89
2021/01/02 10:47:20;;;;;;;;;;;;;;;;;;5047171;28;20391;-90
2021/01/02 10:49:46;;;;;;;;;;;;;;;;;;5043281;28;20395;-89
2021/01/02 10:52:13;;;;;;;;;;;;;;;;;;5048190;28;20389;-87
2021/01/02 10:54:39;;;;;;;;;;;;;;;;;;5050717;28;20422;-87
2021/01/02 10:57:05;;;;;;;;;;;;;;;;;;5036276;28;20767;-87
2021/01/02 10:59:32;;;;;;;;;;;;;;;;;;5055991;28;20393;-87
2021/01/02 11:01:58;;;;;;;;;;;;;;;;;;5056509;28;20456;-87
2021/01/02 11:04:25;;;;;;;;;;;;;;;;;;5055592;28;20950;-86
2021/01/02 11:07:02;;;;;;;;;;;;;;;;;;5043650;28;20391;-88
2021/01/02 11:09:28;;;;;;;;;;;;;;;;;;5051931;28;20395;-88
2021/01/02 11:11:55;;;;;;;;;;;;;;;;;;5047418;28;20388;-88
2021/01/02 11:14:21;;;;;;;;;;;;;;;;;;5050589;28;20415;-88
2021/01/02 11:16:48;;;;;;;;;;;;;;;;;;5038379;28;20453;-87
2021/01/02 11:19:14;;;;;;;;;;;;;;;;;;5049570;28;20878;-88
2021/01/02 11:24:34;;;;;;;;;;;;;;;;;;5018844;28;20765;-88
2021/01/02 11:27:01;;;;;;;;;;;;;;;;;;5041426;28;20824;-89
2021/01/02 11:29:27;;;;;;;;;;;;;;;;;;5035175;28;20407;-89
2021/01/02 11:34:35;;;;;;;;;;;;;;;;;;5031855;28;20424;-89
2021/01/02 11:37:03;;;;;;;;;;;;;;;;;;5054930;28;20396;-91
2021/01/02 11:39:38;;;;;;;;;;;;;;;;;;5053872;28;20401;-89
2021/01/02 11:42:05;;;;;;;;;;;;;;;;;;5055376;28;20380;-92
2021/01/02 11:44:32;;;;;;;;;;;;;;;;;;5055656;28;20404;-88
2021/01/02 11:46:58;;;;;;;;;;;;;;;;;;5035784;28;20391;-88
2021/01/02 11:49:28;;;;;;;;;;;;;;;;;;5054340;28;20381;-89
2021/01/02 11:51:54;;;;;;;;;;;;;;;;;;5051384;28;20380;-88
2021/01/02 11:54:21;;;;;;;;;;;;;;;;;;5034165;28;20411;-88
2021/01/02 11:56:49;;;;;;;;;;;;;;;;;;5035981;28;20434;-89
2021/01/02 11:59:16;;;;;;;;;;;;;;;;;;5053632;28;20389;-87
2021/01/02 12:01:44;;;;;;;;;;;;;;;;;;5044854;28;20391;-87
2021/01/02 12:04:11;;;;;;;;;;;;;;;;;;5049754;28;20941;-89
2021/01/02 12:06:37;;;;;;;;;;;;;;;;;;5045868;28;20399;-85
2021/01/02 12:09:04;;;;;;;;;;;;;;;;;;5047833;28;20838;-88
2021/01/02 12:11:30;;;;;;;;;;;;;;;;;;5054478;28;20380;-89
2021/01/02 12:13:57;;;;;;;;;;;;;;;;;;5045731;28;20462;-88
2021/01/02 12:16:23;;;;;;;;;;;;;;;;;;5049602;28;20384;-90
2021/01/02 12:18:50;;;;;;;;;;;;;;;;;;5053071;28;20389;-88
2021/01/02 12:21:16;;;;;;;;;;;;;;;;;;5076439;28;20410;-87
2021/01/02 12:23:48;;;;;;;;;;;;;;;;;;5060900;28;20478;-90
2021/01/02 12:26:14;;;;;;;;;;;;;;;;;;5053673;28;20393;-90
2021/01/02 12:28:41;;;;;;;;;;;;;;;;;;5053350;28;20392;-87
2021/01/02 12:31:07;;;;;;;;;;;;;;;;;;5054474;28;20392;-88
2021/01/02 12:33:34;;;;;;;;;;;;;;;;;;5054096;28;20432;-89
2021/01/02 12:36:00;;;;;;;;;;;;;;;;;;5055477;28;20819;-87
2021/01/02 12:38:28;;;;;;;;;;;;;;;;;;5054200;28;20442;-88
2021/01/02 12:40:55;;;;;;;;;;;;;;;;;;5054665;28;20438;-89
2021/01/02 12:43:23;;;;;;;;;;;;;;;;;;5053607;28;20408;-87
2021/01/02 12:45:49;;;;;;;;;;;;;;;;;;5063246;28;20391;-88
2021/01/02 12:48:16;;;;;;;;;;;;;;;;;;5064023;28;20379;-86
2021/01/02 12:50:42;;;;;;;;;;;;;;;;;;5034936;28;21063;-87
2021/01/02 12:53:10;;;;;;;;;;;;;;;;;;5047192;28;20419;-88
2021/01/02 12:55:44;;;;;;;;;;;;;;;;;;5047300;28;20499;-89
2021/01/02 12:58:10;;;;;;;;;;;;;;;;;;5045074;28;20392;-88
2021/01/02 13:06:18;;;;;;;;;;;;;;;;;;4997183;28;20747;-89
2021/01/02 13:08:59;;;;;;;;;;;;;;;;;;;;;
2021/01/02 13:11:32;;;;;;;;;;;;;;;;;;5043636;28;20389;-88
2021/01/02 13:19:24;;;;;;;;;;;;;;;;;;4975903;28;20432;-86
2021/01/02 13:21:51;;;;;;;;;;;;;;;;;;4984679;28;20414;-86
2021/01/02 13:27:08;;;;;;;;;;;;;;;;;;4975784;28;20413;-89
2021/01/02 13:29:37;;;;;;;;;;;;;;;;;;4994427;28;20484;-89
2021/01/02 13:32:04;;;;;;;;;;;;;;;;;;4994854;28;20865;-89
2021/01/02 13:34:31;;;;;;;;;;;;;;;;;;4994100;28;20818;-89
2021/01/02 13:36:57;;;;;;;;;;;;;;;;;;4995308;28;20407;-89
2021/01/02 13:39:24;;;;;;;;;;;;;;;;;;4976035;28;20776;-88
2021/01/02 13:41:50;;;;;;;;;;;;;;;;;;4983413;28;20389;-88
2021/01/02 13:44:16;;;;;;;;;;;;;;;;;;4975945;28;20796;-87
2021/01/02 13:46:43;;;;;;;;;;;;;;;;;;4992460;28;20395;-87
2021/01/02 13:49:09;;;;;;;;;;;;;;;;;;5057102;28;20388;-89
2021/01/02 13:51:36;;;;;;;;;;;;;;;;;;5054711;28;20391;-86
2021/01/02 13:54:02;;;;;;;;;;;;;;;;;;5052138;28;20415;-86
2021/01/02 13:56:29;;;;;;;;;;;;;;;;;;5049635;28;20396;-84
2021/01/02 13:58:59;;;;;;;;;;;;;;;;;;5057954;28;20399;-87
2021/01/02 14:01:26;;;;;;;;;;;;;;;;;;5047053;28;20376;-87
2021/01/02 14:03:52;;;;;;;;;;;;;;;;;;5055207;28;20932;-87
2021/01/02 14:06:19;;;;;;;;;;;;;;;;;;5056062;28;20542;-87
2021/01/02 14:08:45;;;;;;;;;;;;;;;;;;5046881;28;20381;-87
2021/01/02 14:11:11;;;;;;;;;;;;;;;;;;5057695;28;20467;-87
2021/01/02 14:13:38;;;;;;;;;;;;;;;;;;5059215;28;20409;-86
2021/01/02 14:16:07;;;;;;;;;;;;;;;;;;5078919;28;20388;-86
2021/01/02 14:27:03;;;;;;;;;;;;;;;;;;5055514;28;20372;-85
2021/01/02 14:29:30;;;;;;;;;;;;;;;;;;5045243;28;20994;-85
2021/01/02 14:31:58;;;;;;;;;;;;;;;;;;5056198;28;20469;-86
2021/01/02 14:34:24;;;;;;;;;;;;;;;;;;5040231;28;20470;-87
2021/01/02 14:36:51;;;;;;;;;;;;;;;;;;5034087;28;20747;-89
2021/01/02 14:39:19;;;;;;;;;;;;;;;;;;5052677;28;20419;-88
2021/01/02 14:41:45;;;;;;;;;;;;;;;;;;5066177;28;20384;-88
2021/01/02 14:44:11;;;;;;;;;;;;;;;;;;5052689;28;20387;-89
2021/01/02 14:46:38;;;;;;;;;;;;;;;;;;5039359;28;20417;-89
2021/01/02 14:49:04;;;;;;;;;;;;;;;;;;5047562;28;20419;-88
2021/01/02 14:51:31;;;;;;;;;;;;;;;;;;5039222;28;20384;-86
2021/01/02 14:53:57;;;;;;;;;;;;;;;;;;5038158;28;20481;-86
2021/01/02 14:56:26;;;;;;;;;;;;;;;;;;5038375;28;20814;-86
2021/01/02 14:58:52;;;;;;;;;;;;;;;;;;5045670;28;20863;-85
2021/01/02 15:01:19;;;;;;;;;;;;;;;;;;5044638;28;20439;-86
2021/01/02 15:03:45;;;;;;;;;;;;;;;;;;5054307;28;20380;-86
2021/01/02 15:06:12;;;;;;;;;;;;;;;;;;5058846;28;20389;-86
2021/01/02 15:08:39;;;;;;;;;;;;;;;;;;5045183;28;20455;-85
2021/01/02 15:11:05;;;;;;;;;;;;;;;;;;5039570;28;21003;-85
2021/01/02 15:13:31;;;;;;;;;;;;;;;;;;5042910;28;20407;-85
2021/01/02 15:15:58;;;;;;;;;;;;;;;;;;5042162;28;20455;-85
2021/01/02 15:18:24;;;;;;;;;;;;;;;;;;5034529;28;20449;-86
2021/01/02 15:21:00;;;;;;;;;;;;;;;;;;5026809;28;20386;-86
2021/01/02 15:23:27;;;;;;;;;;;;;;;;;;5031584;28;20379;-85
2021/01/02 15:25:53;;;;;;;;;;;;;;;;;;5037732;28;20856;-86
2021/01/02 15:28:19;;;;;;;;;;;;;;;;;;5042873;28;20390;-86
2021/01/02 15:30:46;;;;;;;;;;;;;;;;;;5044330;28;20751;-84
2021/01/02 15:33:12;;;;;;;;;;;;;;;;;;5041236;28;20418;-87
2021/01/02 15:35:39;;;;;;;;;;;;;;;;;;5033050;28;20393;-86
2021/01/02 15:38:08;;;;;;;;;;;;;;;;;;5046288;28;20799;-86
2021/01/02 15:40:34;;;;;;;;;;;;;;;;;;5027082;28;20383;-84
2021/01/02 15:43:00;;;;;;;;;;;;;;;;;;5064330;28;20442;-85
2021/01/02 15:45:27;;;;;;;;;;;;;;;;;;5043123;28;20798;-86
2021/01/02 15:47:53;;;;;;;;;;;;;;;;;;5039041;28;20386;-87
2021/01/02 15:50:20;;;;;;;;;;;;;;;;;;5052995;28;20403;-87
2021/01/02 15:52:46;;;;;;;;;;;;;;;;;;5040199;28;20401;-88
2021/01/02 15:55:12;;;;;;;;;;;;;;;;;;5034307;28;20376;-86
2021/01/02 15:57:39;;;;;;;;;;;;;;;;;;5038814;28;20388;-89
2021/01/02 16:00:05;;;;;;;;;;;;;;;;;;5037361;28;20507;-89
2021/01/02 16:02:32;;;;;;;;;;;;;;;;;;5036916;28;20387;-88
2021/01/02 16:04:58;;;;;;;;;;;;;;;;;;5052537;28;20390;-88
2021/01/02 16:07:25;;;;;;;;;;;;;;;;;;5038992;28;20391;-89
2021/01/02 16:10:00;;;;;;;;;;;;;;;;;;5041591;28;20922;-86
2021/01/02 16:12:26;;;;;;;;;;;;;;;;;;5043888;28;20399;-86
2021/01/02 16:14:53;;;;;;;;;;;;;;;;;;5040686;28;20399;-87
2021/01/02 16:17:19;;;;;;;;;;;;;;;;;;5038597;28;20397;-87
2021/01/02 16:19:46;;;;;;;;;;;;;;;;;;5058305;28;20417;-87
2021/01/02 16:22:12;;;;;;;;;;;;;;;;;;5049347;28;20377;-86
2021/01/02 16:24:38;;;;;;;;;;;;;;;;;;5048335;28;20387;-86
2021/01/02 16:27:05;;;;;;;;;;;;;;;;;;5053954;28;21031;-86
2021/01/02 16:29:31;;;;;;;;;;;;;;;;;;5072709;28;20498;-82
2021/01/02 16:31:58;;;;;;;;;;;;;;;;;;5056690;28;20399;-86
2021/01/02 16:34:38;;;;;;;;;;;;;;;;;;5053925;28;20420;-85
2021/01/02 16:37:04;;;;;;;;;;;;;;;;;;5056726;28;20397;-87
2021/01/02 16:39:31;;;;;;;;;;;;;;;;;;5041922;28;20409;-86
2021/01/02 16:41:57;;;;;;;;;;;;;;;;;;5045770;28;20797;-86
2021/01/02 16:47:08;;;;;;;;;;;;;;;;;;5051346;28;20378;-86
2021/01/02 16:49:37;;;;;;;;;;;;;;;;;;5047350;28;20411;-86
2021/01/02 16:52:04;;;;;;;;;;;;;;;;;;5046767;28;20383;-86
2021/01/02 16:54:30;;;;;;;;;;;;;;;;;;5058603;28;20427;-85
2021/01/02 16:56:56;;;;;;;;;;;;;;;;;;5060707;28;20378;-86
2021/01/02 16:59:23;;;;;;;;;;;;;;;;;;5053993;28;20411;-87
2021/01/02 17:01:49;;;;;;;;;;;;;;;;;;5070275;28;20376;-86
2021/01/02 17:04:15;;;;;;;;;;;;;;;;;;5054658;28;20922;-85
2021/01/02 17:06:42;;;;;;;;;;;;;;;;;;5051333;28;20402;-85
2021/01/02 17:09:08;;;;;;;;;;;;;;;;;;5051041;28;20403;-85
2021/01/02 17:11:35;;;;;;;;;;;;;;;;;;5047910;28;20398;-86
2021/01/02 17:14:01;;;;;;;;;;;;;;;;;;5066059;28;20400;-86
2021/01/02 17:16:28;;;;;;;;;;;;;;;;;;5059788;28;20387;-85
2021/01/02 17:18:55;;;;;;;;;;;;;;;;;;5057661;28;20435;-83
2021/01/02 17:21:21;;;;;;;;;;;;;;;;;;5049369;28;20391;-83
2021/01/02 17:23:48;;;;;;;;;;;;;;;;;;5041494;28;20425;-83
2021/01/02 17:26:14;;;;;;;;;;;;;;;;;;5044238;28;20843;-86
2021/01/02 17:28:40;;;;;;;;;;;;;;;;;;5045626;28;20422;-86
2021/01/02 17:31:07;;;;;;;;;;;;;;;;;;5056493;28;20744;-85
2021/01/02 17:33:33;;;;;;;;;;;;;;;;;;5043436;28;20774;-85
2021/01/02 17:36:00;;;;;;;;;;;;;;;;;;5060519;28;20393;-85
2021/01/02 17:38:26;;;;;;;;;;;;;;;;;;5049739;28;20490;-84